Time;durP1;ratioP1;P1;durP2;ratioP2;P2;SDS_P1;SDS_P2;PMS_P1;PMS_P2;Temp;Humidity;BMP_temperature;BMP_pressure;BME280_temperature;BME280_humidity;BME280_pressure;Samples;Min_cycle;Max_cycle;Signal;HPM_P1;HPM_P2
2022/03/16 00:01:58;;;;;;;59.57;34.27;;;8.60;99.90;;;;;;5072606;28;20228;-78
2022/03/16 00:04:24;;;;;;;70.60;37.80;;;8.60;99.90;;;;;;5090416;28;20651;-78
2022/03/16 00:06:49;;;;;;;67.90;38.70;;;8.60;99.90;;;;;;5090946;28;20269;-78
2022/03/16 00:09:15;;;;;;;66.10;35.47;;;8.50;99.90;;;;;;5091410;28;20185;-79
2022/03/16 00:11:41;;;;;;;62.67;37.27;;;8.60;99.90;;;;;;5091185;28;20594;-78
2022/03/16 00:14:07;;;;;;;64.50;37.13;;;8.50;99.90;;;;;;5090549;28;20639;-77
2022/03/16 00:16:32;;;;;;;80.93;39.73;;;8.50;99.90;;;;;;5089019;28;20509;-78
2022/03/16 00:18:58;;;;;;;61.23;37.47;;;8.40;99.90;;;;;;5088959;28;20179;-77
2022/03/16 00:21:24;;;;;;;74.47;40.57;;;8.50;99.90;;;;;;5088990;28;20231;-76
2022/03/16 00:23:49;;;;;;;76.90;39.60;;;8.50;99.90;;;;;;5089506;28;20203;-78
2022/03/16 00:26:15;;;;;;;75.50;38.80;;;8.40;99.90;;;;;;5088749;28;20190;-78
2022/03/16 00:28:41;;;;;;;103.87;45.17;;;8.50;99.90;;;;;;5089774;28;20189;-77
2022/03/16 00:31:07;;;;;;;79.97;40.80;;;8.50;99.90;;;;;;5071610;28;20178;-77
2022/03/16 00:33:32;;;;;;;79.67;40.10;;;8.40;99.90;;;;;;5089494;28;20210;-78
2022/03/16 00:35:58;;;;;;;77.30;40.13;;;8.50;99.90;;;;;;5088243;28;20424;-77
2022/03/16 00:38:24;;;;;;;89.57;42.33;;;8.50;99.90;;;;;;5089568;28;20598;-77
2022/03/16 00:40:49;;;;;;;106.70;44.40;;;8.40;99.90;;;;;;5071468;28;20412;-77
2022/03/16 00:43:15;;;;;;;78.60;40.27;;;8.40;99.90;;;;;;5087762;28;20237;-77
2022/03/16 00:45:41;;;;;;;70.13;39.13;;;8.40;99.90;;;;;;5089231;28;20166;-76
2022/03/16 00:48:06;;;;;;;136.23;48.00;;;8.40;99.90;;;;;;5089021;28;20178;-77
2022/03/16 00:50:34;;;;;;;103.40;42.70;;;8.30;99.90;;;;;;5089829;28;20647;-77
2022/03/16 00:53:00;;;;;;;154.83;48.23;;;8.40;99.90;;;;;;5088759;28;20218;-76
2022/03/16 00:55:27;;;;;;;117.30;42.40;;;8.30;99.90;;;;;;5089077;28;20422;-77
2022/03/16 00:57:52;;;;;;;90.63;41.60;;;8.40;99.90;;;;;;5089513;28;21011;-78
2022/03/16 01:00:18;;;;;;;111.17;43.07;;;8.40;99.90;;;;;;5090921;28;20530;-78
2022/03/16 01:02:44;;;;;;;78.23;40.03;;;8.40;99.90;;;;;;5089572;28;20201;-78
2022/03/16 01:05:09;;;;;;;87.97;40.47;;;8.50;99.90;;;;;;5088912;28;20193;-76
2022/03/16 01:07:35;;;;;;;64.40;37.00;;;8.30;99.90;;;;;;5087893;28;20186;-76
2022/03/16 01:10:01;;;;;;;99.53;45.53;;;8.30;99.90;;;;;;5089675;28;20185;-77
2022/03/16 01:12:27;;;;;;;98.43;42.83;;;8.30;99.90;;;;;;5090145;28;20471;-77
2022/03/16 01:14:53;;;;;;;101.10;43.70;;;8.10;99.90;;;;;;5071879;28;20417;-77
2022/03/16 01:17:18;;;;;;;130.10;44.73;;;8.30;99.90;;;;;;5088599;28;20185;-79
2022/03/16 01:19:44;;;;;;;91.60;41.37;;;8.20;99.90;;;;;;5090392;28;20182;-76
2022/03/16 01:22:10;;;;;;;89.77;42.90;;;8.20;99.90;;;;;;5089909;28;20225;-78
2022/03/16 01:24:35;;;;;;;100.87;42.50;;;8.30;99.90;;;;;;5089434;28;20205;-78
2022/03/16 01:27:01;;;;;;;122.43;44.30;;;8.20;99.90;;;;;;5072292;28;20206;-77
2022/03/16 01:29:27;;;;;;;84.73;40.30;;;8.30;99.90;;;;;;5089364;28;20616;-77
2022/03/16 01:31:54;;;;;;;72.47;39.03;;;8.30;99.90;;;;;;5071818;28;20465;-78
2022/03/16 01:34:20;;;;;;;90.57;39.37;;;8.30;99.90;;;;;;5088730;28;20194;-79
2022/03/16 01:36:46;;;;;;;149.30;46.30;;;8.30;99.90;;;;;;5093992;28;20506;-79
2022/03/16 01:39:11;;;;;;;89.53;40.80;;;8.30;99.90;;;;;;5094870;28;20489;-82
2022/03/16 01:41:37;;;;;;;111.23;44.43;;;8.30;99.90;;;;;;5075913;28;20954;-80
2022/03/16 01:44:04;;;;;;;94.73;42.17;;;8.20;99.90;;;;;;5093785;28;20633;-80
2022/03/16 01:46:29;;;;;;;81.60;40.90;;;8.30;99.90;;;;;;5075926;28;20197;-80
2022/03/16 01:48:55;;;;;;;91.00;41.20;;;8.30;99.90;;;;;;5075746;28;20950;-79
2022/03/16 01:51:21;;;;;;;81.87;40.70;;;8.30;99.90;;;;;;5092134;28;20178;-77
2022/03/16 01:53:48;;;;;;;129.30;44.07;;;8.30;99.90;;;;;;5058600;28;20232;-79
2022/03/16 01:56:18;;;;;;;90.13;41.07;;;8.20;99.90;;;;;;5092429;28;20456;-78
2022/03/16 01:58:44;;;;;;;90.53;40.90;;;8.20;99.90;;;;;;5074639;28;20423;-77
2022/03/16 02:01:09;;;;;;;79.10;40.40;;;8.20;99.90;;;;;;5093052;28;20409;-78
2022/03/16 02:03:35;;;;;;;124.30;44.30;;;8.30;99.90;;;;;;5074769;28;20482;-78
2022/03/16 02:06:02;;;;;;;98.43;43.07;;;8.10;99.90;;;;;;5074897;28;20190;-79
2022/03/16 02:08:30;;;;;;;96.23;42.10;;;8.20;99.90;;;;;;5092494;28;20182;-77
2022/03/16 02:10:55;;;;;;;97.17;44.20;;;8.30;99.90;;;;;;5093295;28;20420;-76
2022/03/16 02:13:21;;;;;;;103.40;45.30;;;8.30;99.90;;;;;;5097578;28;20557;-81
2022/03/16 02:15:47;;;;;;;97.67;42.13;;;8.20;99.90;;;;;;5103422;28;20193;-78
2022/03/16 02:18:13;;;;;;;102.37;44.87;;;8.20;99.90;;;;;;5107067;28;20206;-80
2022/03/16 02:20:39;;;;;;;107.93;43.37;;;8.30;99.90;;;;;;5108306;28;20527;-77
2022/03/16 02:23:07;;;;;;;135.53;47.50;;;8.30;99.90;;;;;;5070943;28;20456;-78
2022/03/16 02:25:34;;;;;;;120.20;45.27;;;8.20;99.90;;;;;;5106480;28;20635;-79
2022/03/16 02:28:00;;;;;;;97.27;42.10;;;8.20;99.90;;;;;;5103006;28;20428;-78
2022/03/16 02:30:28;;;;;;;120.70;43.63;;;8.20;99.90;;;;;;5092808;28;20939;-78
2022/03/16 02:32:54;;;;;;;133.77;46.17;;;8.20;99.90;;;;;;5090970;28;20530;-77
2022/03/16 02:35:21;;;;;;;125.73;45.27;;;8.20;99.90;;;;;;5093063;28;20452;-77
2022/03/16 02:37:47;;;;;;;100.93;43.47;;;8.20;99.90;;;;;;5092993;28;20424;-78
2022/03/16 02:40:18;;;;;;;166.20;48.43;;;8.20;99.90;;;;;;5093133;28;20507;-78
2022/03/16 02:42:43;;;;;;;151.00;49.83;;;8.30;99.90;;;;;;5092873;28;20198;-77
2022/03/16 02:45:09;;;;;;;100.37;42.90;;;8.20;99.90;;;;;;5090448;28;20953;-76
2022/03/16 02:47:37;;;;;;;109.77;44.87;;;8.30;99.90;;;;;;5090807;28;21000;-77
2022/03/16 02:50:03;;;;;;;100.93;42.73;;;8.30;99.90;;;;;;5092929;28;20682;-76
2022/03/16 02:52:29;;;;;;;153.07;47.90;;;8.20;99.90;;;;;;5094571;28;20464;-77
2022/03/16 02:54:54;;;;;;;126.20;44.50;;;8.30;99.90;;;;;;5097587;28;20449;-78
2022/03/16 02:57:20;;;;;;;120.70;44.50;;;8.30;99.90;;;;;;5074726;28;20198;-77
2022/03/16 02:59:46;;;;;;;125.27;47.50;;;8.30;99.90;;;;;;5073097;28;20239;-77
2022/03/16 03:02:12;;;;;;;133.07;45.17;;;8.20;99.90;;;;;;5091230;28;20186;-77
2022/03/16 03:04:38;;;;;;;143.60;46.00;;;8.20;99.90;;;;;;5072780;28;20182;-77
2022/03/16 03:07:05;;;;;;;196.03;50.83;;;8.40;99.90;;;;;;5073004;28;20425;-76
2022/03/16 03:09:31;;;;;;;161.23;48.63;;;8.20;99.90;;;;;;5091835;28;21330;-78
2022/03/16 03:11:59;;;;;;;191.33;51.27;;;8.20;99.90;;;;;;5091504;28;20464;-77
2022/03/16 03:14:27;;;;;;;238.47;54.20;;;8.20;99.90;;;;;;5073695;28;21283;-77
2022/03/16 03:16:53;;;;;;;145.33;45.67;;;8.10;99.90;;;;;;5090127;28;20413;-78
2022/03/16 03:19:20;;;;;;;157.70;48.87;;;8.10;99.90;;;;;;5091407;28;20458;-77
2022/03/16 03:21:46;;;;;;;151.33;48.03;;;8.10;99.90;;;;;;5091460;28;20265;-77
2022/03/16 03:24:12;;;;;;;201.87;50.57;;;8.00;99.90;;;;;;5056692;28;20532;-77
2022/03/16 03:26:38;;;;;;;135.77;47.87;;;8.00;99.90;;;;;;5091577;28;20781;-77
2022/03/16 03:29:04;;;;;;;124.17;46.40;;;8.10;99.90;;;;;;5089873;28;20426;-77
2022/03/16 03:31:30;;;;;;;136.70;46.83;;;8.10;99.90;;;;;;5091341;28;20247;-77
2022/03/16 03:33:56;;;;;;;122.00;47.93;;;8.10;99.90;;;;;;5090901;28;20776;-78
2022/03/16 03:36:22;;;;;;;249.03;56.87;;;8.20;99.90;;;;;;5089783;28;20420;-77
2022/03/16 03:38:47;;;;;;;173.93;50.33;;;8.00;99.90;;;;;;5089574;28;20909;-77
2022/03/16 03:41:13;;;;;;;194.37;52.17;;;7.90;99.90;;;;;;5089747;28;20240;-77
2022/03/16 03:43:39;;;;;;;188.77;51.93;;;7.90;99.90;;;;;;5089750;28;20297;-78
2022/03/16 03:46:04;;;;;;;116.93;47.00;;;7.80;99.90;;;;;;5090840;28;20193;-76
2022/03/16 03:48:30;;;;;;;96.33;45.27;;;7.80;99.90;;;;;;5091331;28;20210;-78
2022/03/16 03:50:56;;;;;;;156.43;51.97;;;8.00;99.90;;;;;;5089435;28;20227;-78
2022/03/16 03:53:21;;;;;;;110.87;46.20;;;8.00;99.90;;;;;;5073520;28;20245;-79
2022/03/16 03:55:47;;;;;;;111.20;45.50;;;8.00;99.90;;;;;;5073149;28;20604;-77
2022/03/16 03:58:13;;;;;;;134.03;49.00;;;8.10;99.90;;;;;;5089877;28;20190;-77
2022/03/16 04:00:38;;;;;;;105.07;44.50;;;8.10;99.90;;;;;;5090638;28;20182;-78
2022/03/16 04:03:04;;;;;;;128.67;48.50;;;8.30;99.90;;;;;;5073659;28;20325;-79
2022/03/16 04:05:29;;;;;;;131.00;47.97;;;8.00;99.90;;;;;;5089858;28;20239;-79
2022/03/16 04:07:55;;;;;;;171.57;49.93;;;8.00;99.90;;;;;;5074367;28;20182;-77
2022/03/16 04:10:21;;;;;;;146.93;49.27;;;8.00;99.90;;;;;;5090408;28;20186;-78
2022/03/16 04:12:46;;;;;;;194.07;50.63;;;8.00;99.90;;;;;;5073490;28;20226;-78
2022/03/16 04:15:12;;;;;;;364.17;62.20;;;8.00;99.90;;;;;;5089649;28;20182;-77
2022/03/16 04:17:38;;;;;;;237.27;52.50;;;8.00;99.90;;;;;;5092126;28;20942;-78
2022/03/16 04:20:05;;;;;;;158.03;49.90;;;7.90;99.90;;;;;;5090360;28;20194;-78
2022/03/16 04:22:31;;;;;;;240.73;55.37;;;7.90;99.90;;;;;;5090902;28;20574;-77
2022/03/16 04:24:57;;;;;;;275.97;59.70;;;7.80;99.90;;;;;;5090776;28;20495;-76
2022/03/16 04:27:23;;;;;;;278.80;53.83;;;7.80;99.90;;;;;;5090306;28;20191;-77
2022/03/16 04:29:49;;;;;;;106.47;47.10;;;7.80;99.90;;;;;;5090518;28;20423;-78
2022/03/16 04:32:14;;;;;;;290.00;53.80;;;7.80;99.90;;;;;;5089094;28;20476;-78
2022/03/16 04:34:40;;;;;;;187.33;50.73;;;7.80;99.90;;;;;;5089966;28;20189;-77
2022/03/16 04:37:06;;;;;;;217.40;46.70;;;7.80;99.90;;;;;;5090148;28;20640;-77
2022/03/16 04:39:32;;;;;;;531.17;57.93;;;7.70;99.90;;;;;;5091074;28;20181;-78
2022/03/16 04:41:58;;;;;;;161.10;45.50;;;7.60;99.90;;;;;;5089835;28;20178;-79
2022/03/16 04:44:23;;;;;;;329.03;53.00;;;7.70;99.90;;;;;;5088948;28;20962;-80
2022/03/16 04:46:49;;;;;;;340.40;57.77;;;7.70;99.90;;;;;;5090632;28;20192;-79
2022/03/16 04:49:15;;;;;;;188.27;48.77;;;7.80;99.90;;;;;;5089628;28;20190;-78
2022/03/16 04:51:41;;;;;;;164.33;46.27;;;7.70;99.90;;;;;;5072935;28;20486;-78
2022/03/16 04:54:07;;;;;;;310.20;54.30;;;7.60;99.90;;;;;;5089341;28;20202;-78
2022/03/16 04:56:35;;;;;;;215.57;50.93;;;7.80;99.90;;;;;;5090485;28;20195;-78
2022/03/16 04:59:04;;;;;;;398.07;55.77;;;7.80;99.90;;;;;;5090830;28;20423;-78
2022/03/16 05:01:30;;;;;;;198.93;48.00;;;7.70;99.90;;;;;;5090311;28;20511;-78
2022/03/16 05:03:56;;;;;;;136.87;46.10;;;7.70;99.90;;;;;;5088326;28;20432;-79
2022/03/16 05:06:22;;;;;;;231.43;47.90;;;7.70;99.90;;;;;;5090134;28;20447;-78
2022/03/16 05:08:48;;;;;;;319.90;50.50;;;7.70;99.90;;;;;;5089031;28;20425;-77
2022/03/16 05:11:14;;;;;;;380.53;56.27;;;7.60;99.90;;;;;;5094657;28;20175;-78
2022/03/16 05:13:40;;;;;;;401.13;56.70;;;7.80;99.90;;;;;;5094450;28;20218;-77
2022/03/16 05:16:07;;;;;;;173.83;46.27;;;7.70;99.90;;;;;;5095206;28;20421;-78
2022/03/16 05:18:33;;;;;;;209.60;49.27;;;7.70;99.90;;;;;;5094369;28;20426;-78
2022/03/16 05:20:59;;;;;;;366.20;54.50;;;7.70;99.90;;;;;;5093526;28;20487;-76
2022/03/16 05:23:25;;;;;;;234.33;52.20;;;7.80;99.90;;;;;;5094009;28;20550;-75
2022/03/16 05:25:51;;;;;;;288.23;55.53;;;7.70;99.90;;;;;;5092568;28;20408;-77
2022/03/16 05:28:17;;;;;;;167.50;49.80;;;7.80;99.90;;;;;;5093833;28;20175;-77
2022/03/16 05:30:43;;;;;;;196.30;50.13;;;7.80;99.90;;;;;;5093836;28;20177;-76
2022/03/16 05:33:09;;;;;;;183.77;48.63;;;7.80;99.90;;;;;;5092243;28;20598;-76
2022/03/16 05:35:34;;;;;;;468.00;66.87;;;7.80;99.90;;;;;;5093995;28;20878;-77
2022/03/16 05:38:02;;;;;;;173.20;51.07;;;7.80;99.90;;;;;;5092065;28;20182;-75
2022/03/16 05:40:28;;;;;;;222.77;48.17;;;7.80;99.90;;;;;;5092328;28;21045;-78
2022/03/16 05:42:53;;;;;;;267.30;51.00;;;7.70;99.90;;;;;;5093930;28;20437;-76
2022/03/16 05:45:19;;;;;;;189.17;46.23;;;7.70;99.90;;;;;;5092189;28;20206;-75
2022/03/16 05:47:46;;;;;;;112.23;43.73;;;7.80;99.90;;;;;;5091862;28;20943;-76
2022/03/16 05:50:11;;;;;;;108.67;44.27;;;7.70;99.90;;;;;;5091770;28;20444;-76
2022/03/16 05:52:37;;;;;;;173.70;48.20;;;7.70;99.90;;;;;;5091355;28;20490;-76
2022/03/16 05:55:04;;;;;;;135.07;44.53;;;7.70;99.90;;;;;;5090062;28;20179;-76
2022/03/16 05:57:29;;;;;;;143.27;47.10;;;7.60;99.90;;;;;;5091113;28;20436;-76
2022/03/16 05:59:55;;;;;;;198.33;46.83;;;7.60;99.90;;;;;;5090193;28;20468;-76
2022/03/16 06:02:21;;;;;;;164.73;46.43;;;7.70;99.90;;;;;;5091168;28;20198;-76
2022/03/16 06:04:46;;;;;;;134.30;46.70;;;7.70;99.90;;;;;;5089767;28;20459;-76
2022/03/16 06:07:13;;;;;;;166.50;46.00;;;7.70;99.90;;;;;;5091302;28;20237;-77
2022/03/16 06:09:39;;;;;;;111.20;43.60;;;7.70;99.90;;;;;;5091341;28;20175;-77
2022/03/16 06:12:06;;;;;;;399.03;54.03;;;7.70;99.90;;;;;;5090739;28;20870;-76
2022/03/16 06:14:32;;;;;;;425.60;57.03;;;7.60;99.90;;;;;;5091194;28;20418;-75
2022/03/16 06:16:58;;;;;;;642.03;81.93;;;7.50;99.90;;;;;;5089687;28;21020;-76
2022/03/16 06:19:23;;;;;;;313.87;54.43;;;7.30;99.90;;;;;;5090960;28;20258;-77
2022/03/16 06:21:49;;;;;;;318.10;55.77;;;7.30;99.90;;;;;;5089932;28;20419;-75
2022/03/16 06:24:16;;;;;;;753.13;81.17;;;7.50;99.90;;;;;;5088981;28;20663;-76
2022/03/16 06:26:42;;;;;;;204.73;49.93;;;7.50;99.90;;;;;;5090414;28;20478;-77
2022/03/16 06:29:08;;;;;;;222.10;53.33;;;7.50;99.90;;;;;;5089186;28;20421;-76
2022/03/16 06:31:34;;;;;;;743.77;79.43;;;7.60;99.90;;;;;;5091047;28;20755;-77
2022/03/16 06:34:00;;;;;;;443.57;63.90;;;7.50;99.90;;;;;;5090622;28;20432;-76
2022/03/16 06:36:26;;;;;;;325.97;53.60;;;7.70;99.90;;;;;;5072318;28;20924;-77
2022/03/16 06:38:53;;;;;;;323.30;57.90;;;7.70;99.90;;;;;;5090515;28;20412;-75
2022/03/16 06:41:18;;;;;;;378.27;58.13;;;7.80;99.90;;;;;;5090031;28;20554;-76
2022/03/16 06:43:44;;;;;;;205.20;52.73;;;7.80;99.90;;;;;;5090038;28;21009;-76
2022/03/16 06:46:10;;;;;;;274.60;52.93;;;8.00;99.90;;;;;;5089962;28;20194;-76
2022/03/16 06:48:35;;;;;;;157.43;49.67;;;8.00;99.90;;;;;;5090179;28;20674;-76
2022/03/16 06:51:01;;;;;;;171.20;53.03;;;8.00;99.90;;;;;;5089625;28;20578;-77
2022/03/16 06:53:30;;;;;;;137.77;50.30;;;8.00;99.90;;;;;;5089353;28;20303;-75
2022/03/16 06:55:55;;;;;;;146.73;49.67;;;8.10;99.90;;;;;;5089500;28;20210;-74
2022/03/16 06:58:21;;;;;;;127.53;49.93;;;8.20;99.90;;;;;;5089586;28;20448;-77
2022/03/16 07:00:47;;;;;;;98.07;46.63;;;8.20;99.90;;;;;;5089416;28;20178;-76
2022/03/16 07:03:13;;;;;;;103.73;44.40;;;8.20;99.90;;;;;;5089341;28;20194;-74
2022/03/16 07:05:40;;;;;;;145.17;47.80;;;8.30;99.90;;;;;;5089496;28;20463;-76
2022/03/16 07:08:08;;;;;;;120.93;44.37;;;8.30;99.90;;;;;;5089467;28;20461;-76
2022/03/16 07:10:36;;;;;;;80.10;40.00;;;8.30;99.90;;;;;;5089704;28;20455;-76
2022/03/16 07:13:02;;;;;;;80.77;41.00;;;8.40;99.90;;;;;;5087954;28;20472;-76
2022/03/16 07:15:30;;;;;;;93.03;43.37;;;8.40;99.90;;;;;;5089324;28;20409;-76
2022/03/16 07:17:56;;;;;;;105.40;45.60;;;8.50;99.90;;;;;;5089257;28;20767;-74
2022/03/16 07:20:22;;;;;;;112.40;46.83;;;8.50;99.90;;;;;;5088889;28;20496;-76
2022/03/16 07:23:01;;;;;;;102.90;44.33;;;8.60;99.90;;;;;;5089066;28;20440;-75
2022/03/16 07:25:27;;;;;;;93.70;42.00;;;8.50;99.90;;;;;;5089987;28;20178;-76
2022/03/16 07:27:52;;;;;;;82.57;41.27;;;8.60;99.90;;;;;;5088947;28;20428;-74
2022/03/16 07:30:18;;;;;;;90.13;41.03;;;8.70;99.90;;;;;;5088716;28;20417;-74
2022/03/16 07:32:44;;;;;;;88.67;42.23;;;8.70;99.90;;;;;;5087734;28;20293;-75
2022/03/16 07:35:09;;;;;;;83.50;42.00;;;8.70;99.90;;;;;;5087684;28;20223;-76
2022/03/16 07:37:36;;;;;;;79.27;38.60;;;8.80;99.90;;;;;;5087113;28;20224;-74
2022/03/16 07:40:02;;;;;;;71.97;38.77;;;8.80;99.90;;;;;;5088820;28;20178;-76
2022/03/16 07:42:30;;;;;;;86.40;41.17;;;8.90;99.90;;;;;;5088879;28;21281;-76
2022/03/16 07:44:55;;;;;;;77.47;38.20;;;8.80;99.90;;;;;;5087044;28;20891;-76
2022/03/16 07:47:21;;;;;;;80.47;39.57;;;8.80;99.90;;;;;;5087087;28;20431;-76
2022/03/16 07:49:47;;;;;;;72.57;39.40;;;8.90;99.90;;;;;;5088595;28;20178;-76
2022/03/16 07:52:13;;;;;;;65.47;35.60;;;9.00;99.90;;;;;;5088684;28;20202;-76
2022/03/16 07:54:38;;;;;;;59.13;34.10;;;9.00;99.90;;;;;;5088590;28;20179;-76
2022/03/16 07:57:04;;;;;;;59.43;35.63;;;9.00;99.90;;;;;;5087184;28;20438;-76
2022/03/16 07:59:29;;;;;;;66.73;35.23;;;9.00;99.90;;;;;;5088420;28;20235;-76
2022/03/16 08:01:55;;;;;;;66.97;36.47;;;9.00;99.90;;;;;;5086993;28;20187;-76
2022/03/16 08:04:21;;;;;;;70.60;38.30;;;9.00;99.90;;;;;;5088045;28;20201;-76
2022/03/16 08:06:46;;;;;;;87.43;43.27;;;9.10;99.90;;;;;;5088397;28;20175;-76
2022/03/16 08:09:12;;;;;;;93.10;44.17;;;9.10;99.90;;;;;;5070152;28;20236;-76
2022/03/16 08:11:39;;;;;;;89.77;45.80;;;9.10;99.90;;;;;;5087036;28;20187;-75
2022/03/16 08:14:05;;;;;;;110.80;48.17;;;9.20;99.90;;;;;;5088271;28;20702;-76
2022/03/16 08:16:30;;;;;;;96.53;45.63;;;9.20;99.90;;;;;;5088311;28;20419;-76
2022/03/16 08:18:56;;;;;;;84.43;41.40;;;9.20;99.90;;;;;;5088270;28;20175;-76
2022/03/16 08:21:21;;;;;;;93.53;46.27;;;9.20;99.90;;;;;;5088221;28;20905;-76
2022/03/16 08:23:47;;;;;;;91.27;45.50;;;9.20;99.90;;;;;;5088067;28;20198;-76
2022/03/16 08:26:13;;;;;;;100.80;45.60;;;9.30;99.90;;;;;;5088437;28;20174;-76
2022/03/16 08:28:39;;;;;;;78.27;40.53;;;9.10;99.90;;;;;;5070062;28;20189;-78
2022/03/16 08:31:07;;;;;;;99.23;44.43;;;9.10;99.90;;;;;;5070136;28;20228;-76
2022/03/16 08:33:33;;;;;;;76.13;40.57;;;9.20;99.90;;;;;;5070039;28;20480;-76
2022/03/16 08:36:01;;;;;;;84.70;41.00;;;9.20;99.90;;;;;;5086562;28;20418;-76
2022/03/16 08:38:30;;;;;;;73.50;39.27;;;9.30;99.90;;;;;;5086843;28;20265;-76
2022/03/16 08:40:56;;;;;;;70.40;38.03;;;9.30;99.90;;;;;;5086873;28;20516;-76
2022/03/16 08:43:21;;;;;;;80.80;40.80;;;9.40;99.90;;;;;;5087989;28;20547;-76
2022/03/16 08:45:47;;;;;;;74.60;38.47;;;9.40;99.90;;;;;;5086771;28;20530;-76
2022/03/16 08:48:14;;;;;;;91.33;39.20;;;9.50;99.90;;;;;;5069545;28;20197;-76
2022/03/16 08:50:40;;;;;;;81.30;40.80;;;9.50;99.90;;;;;;5087910;28;20186;-76
2022/03/16 08:53:06;;;;;;;66.30;37.17;;;9.50;99.90;;;;;;5086249;28;20521;-76
2022/03/16 08:55:32;;;;;;;77.47;38.80;;;9.60;99.90;;;;;;5086439;28;20913;-75
2022/03/16 08:57:58;;;;;;;64.07;37.77;;;9.70;99.90;;;;;;5086010;28;20276;-76
2022/03/16 09:00:23;;;;;;;74.73;40.10;;;9.80;99.90;;;;;;5087655;28;20178;-75
2022/03/16 09:02:49;;;;;;;77.63;40.27;;;9.90;99.90;;;;;;5087467;28;20277;-76
2022/03/16 09:05:17;;;;;;;65.23;37.87;;;9.90;99.90;;;;;;5086361;28;20193;-75
2022/03/16 09:07:43;;;;;;;65.30;38.03;;;10.10;99.90;;;;;;5088019;28;20179;-75
2022/03/16 09:10:09;;;;;;;66.87;38.50;;;10.20;99.90;;;;;;5088071;28;20461;-74
2022/03/16 09:12:36;;;;;;;67.90;37.87;;;10.20;99.90;;;;;;5086261;28;20219;-74
2022/03/16 09:15:02;;;;;;;57.00;36.10;;;10.30;99.90;;;;;;5088291;28;20417;-75
2022/03/16 09:17:30;;;;;;;67.50;36.77;;;10.40;99.90;;;;;;5087593;28;20816;-74
2022/03/16 09:20:00;;;;;;;61.60;36.33;;;10.50;99.90;;;;;;5088350;28;20415;-74
2022/03/16 09:22:25;;;;;;;50.90;32.37;;;10.60;99.90;;;;;;5088463;28;20495;-75
2022/03/16 09:24:51;;;;;;;54.13;33.17;;;10.90;99.90;;;;;;5087949;28;21251;-74
2022/03/16 09:27:16;;;;;;;52.03;32.87;;;10.90;99.90;;;;;;5088040;28;20719;-74
2022/03/16 09:29:46;;;;;;;64.83;33.50;;;11.20;99.90;;;;;;5088024;28;20218;-75
2022/03/16 09:32:12;;;;;;;49.30;32.77;;;11.40;99.90;;;;;;5087601;28;20197;-75
2022/03/16 09:34:40;;;;;;;31.13;23.37;;;11.60;99.90;;;;;;5088504;28;20426;-74
2022/03/16 09:37:07;;;;;;;41.77;28.10;;;11.70;99.90;;;;;;5087533;28;20420;-76
2022/03/16 09:39:33;;;;;;;26.23;18.07;;;11.90;99.90;;;;;;5085963;28;20428;-76
2022/03/16 09:41:59;;;;;;;18.13;14.70;;;11.80;99.90;;;;;;5087423;28;20967;-76
2022/03/16 09:44:27;;;;;;;18.87;14.53;;;12.20;99.90;;;;;;5087578;28;20528;-77
2022/03/16 09:46:54;;;;;;;20.40;15.87;;;12.00;99.90;;;;;;5087326;28;20852;-75
2022/03/16 09:49:20;;;;;;;19.93;16.23;;;11.90;99.90;;;;;;5087405;28;20803;-77
2022/03/16 09:51:46;;;;;;;23.70;16.40;;;12.00;99.90;;;;;;5087112;28;20419;-77
2022/03/16 09:54:12;;;;;;;18.20;15.80;;;12.20;99.90;;;;;;5069042;28;20200;-77
2022/03/16 09:56:38;;;;;;;20.37;15.77;;;12.40;99.90;;;;;;5088639;28;20435;-77
2022/03/16 09:59:04;;;;;;;24.60;15.53;;;12.50;99.90;;;;;;5091429;28;20243;-76
2022/03/16 10:01:29;;;;;;;20.43;15.90;;;12.40;99.90;;;;;;5091459;28;21219;-76
2022/03/16 10:03:59;;;;;;;21.97;16.00;;;12.30;99.90;;;;;;5091446;28;20629;-76
2022/03/16 10:06:26;;;;;;;21.50;16.70;;;12.20;99.90;;;;;;5091463;28;20175;-76
2022/03/16 10:14:20;;;;;;;22.03;16.00;;;12.20;99.90;;;;;;5091019;28;20491;-77
2022/03/16 10:19:49;;;;;;;39.03;17.70;;;12.30;99.90;;;;;;5089698;28;20281;-75
2022/03/16 10:22:31;;;;;;;22.50;16.40;;;12.50;99.90;;;;;;5090708;28;20569;-75
2022/03/16 10:25:05;;;;;;;22.80;17.60;;;12.30;99.90;;;;;;5091375;28;20398;-76
2022/03/16 10:27:36;;;;;;;22.03;15.90;;;12.60;99.90;;;;;;5091196;28;20529;-76
2022/03/16 10:30:05;;;;;;;21.83;15.40;;;13.10;99.90;;;;;;5090012;28;20420;-77
2022/03/16 10:32:31;;;;;;;20.07;15.33;;;13.10;99.90;;;;;;5090521;28;20491;-76
2022/03/16 10:35:02;;;;;;;21.47;16.20;;;13.30;99.90;;;;;;5090899;28;20418;-76
2022/03/16 10:37:28;;;;;;;21.33;16.60;;;13.40;99.90;;;;;;5091215;28;20536;-75
2022/03/16 10:39:53;;;;;;;19.50;15.43;;;13.40;99.90;;;;;;5073030;28;20516;-74
2022/03/16 10:48:27;;;;;;;23.83;17.63;;;13.60;99.90;;;;;;5089711;28;20498;-76
2022/03/16 10:51:02;;;;;;;21.40;16.43;;;13.70;99.90;;;;;;5089403;28;20430;-76
2022/03/16 10:53:30;;;;;;;18.83;15.13;;;13.60;99.90;;;;;;5090671;28;20491;-77
2022/03/16 10:56:01;;;;;;;22.23;15.67;;;13.30;99.90;;;;;;5089033;28;21267;-76
2022/03/16 10:58:28;;;;;;;26.63;18.03;;;13.40;99.90;;;;;;5090473;28;20415;-77
2022/03/16 11:00:56;;;;;;;20.50;15.70;;;13.30;99.90;;;;;;5090467;28;20442;-76
2022/03/16 11:03:23;;;;;;;23.93;16.80;;;13.60;99.90;;;;;;5089225;28;20451;-76
2022/03/16 11:05:49;;;;;;;31.50;17.67;;;13.60;99.90;;;;;;5090398;28;20503;-76
2022/03/16 11:08:15;;;;;;;22.60;15.50;;;13.90;99.90;;;;;;5088958;28;20414;-77
2022/03/16 11:10:43;;;;;;;21.73;15.03;;;14.30;99.90;;;;;;5088860;28;20428;-75
2022/03/16 11:13:28;;;;;;;22.60;14.30;;;13.90;99.90;;;;;;5072082;28;20997;-78
2022/03/16 11:15:56;;;;;;;21.30;15.80;;;14.20;99.90;;;;;;5088771;28;20419;-76
2022/03/16 11:18:23;;;;;;;20.47;16.10;;;14.00;99.90;;;;;;5089932;28;20423;-76
2022/03/16 11:20:54;;;;;;;20.70;15.07;;;14.00;99.90;;;;;;5089996;28;20502;-79
2022/03/16 11:26:45;;;;;;;20.30;15.13;;;13.40;99.90;;;;;;5088831;28;20439;-78
2022/03/16 11:29:38;;;;;;;18.93;15.07;;;13.50;99.90;;;;;;5089345;28;20788;-78
2022/03/16 11:32:09;;;;;;;19.83;15.40;;;13.50;99.90;;;;;;5087977;28;20936;-78
2022/03/16 11:34:36;;;;;;;21.20;17.23;;;13.70;99.90;;;;;;5088037;28;21112;-78
2022/03/16 11:37:09;;;;;;;19.57;14.57;;;13.60;99.90;;;;;;5089439;28;20421;-77
2022/03/16 11:39:42;;;;;;;21.20;14.50;;;13.90;99.90;;;;;;5071351;28;20442;-77
2022/03/16 11:42:09;;;;;;;18.17;14.90;;;13.90;99.90;;;;;;5089241;28;20412;-77
2022/03/16 11:44:34;;;;;;;28.03;17.30;;;13.90;99.90;;;;;;5087675;28;20496;-78
2022/03/16 11:47:09;;;;;;;20.70;15.93;;;13.80;99.90;;;;;;5088689;28;20928;-77
2022/03/16 11:49:39;;;;;;;23.40;14.57;;;13.90;99.90;;;;;;5088604;28;20222;-76
2022/03/16 11:52:05;;;;;;;20.33;15.03;;;14.00;99.90;;;;;;5088698;28;20461;-77
2022/03/16 11:54:51;;;;;;;20.37;14.60;;;14.00;99.90;;;;;;5088843;28;20497;-75
2022/03/16 11:57:52;;;;;;;20.50;13.30;;;14.00;99.90;;;;;;5088614;28;20475;-78
2022/03/16 12:00:22;;;;;;;14.80;12.80;;;13.90;99.90;;;;;;5088828;28;20425;-77
2022/03/16 12:03:07;;;;;;;18.73;14.40;;;13.70;99.90;;;;;;5088565;28;20450;-77
2022/03/16 12:05:59;;;;;;;16.60;13.70;;;13.80;99.90;;;;;;5088163;28;20496;-77
2022/03/16 12:08:32;;;;;;;18.40;15.03;;;13.80;99.90;;;;;;5088189;28;20419;-76
2022/03/16 12:13:47;;;;;;;17.10;13.13;;;13.60;99.90;;;;;;5088262;28;20486;-76
2022/03/16 12:16:18;;;;;;;17.73;14.10;;;13.70;99.90;;;;;;5088650;28;20503;-77
2022/03/16 12:18:46;;;;;;;16.23;13.90;;;13.50;99.90;;;;;;5087892;28;20452;-77
2022/03/16 12:21:14;;;;;;;18.70;15.47;;;13.40;99.90;;;;;;5088252;28;20428;-76
2022/03/16 12:23:54;;;;;;;19.73;13.50;;;13.50;99.90;;;;;;5088224;28;20935;-76
2022/03/16 12:26:28;;;;;;;25.30;14.90;;;13.40;99.90;;;;;;5086968;28;20437;-76
2022/03/16 12:29:12;;;;;;;18.53;15.13;;;13.50;99.90;;;;;;5088248;28;20418;-76
2022/03/16 12:31:42;;;;;;;18.50;13.83;;;13.50;99.90;;;;;;5088060;28;20430;-75
2022/03/16 12:34:07;;;;;;;17.67;14.30;;;13.40;99.90;;;;;;5086336;28;20442;-76
2022/03/16 12:36:35;;;;;;;17.73;14.50;;;13.30;99.90;;;;;;5088089;28;20782;-76
2022/03/16 12:39:08;;;;;;;17.63;13.00;;;13.30;99.90;;;;;;5086999;28;20466;-76
2022/03/16 12:44:19;;;;;;;40.70;16.10;;;13.20;99.90;;;;;;5088251;28;20457;-76
2022/03/16 12:46:57;;;;;;;29.53;15.30;;;13.30;99.90;;;;;;5087816;28;20410;-76
2022/03/16 12:49:23;;;;;;;24.33;15.60;;;13.10;99.90;;;;;;5088327;28;20466;-77
2022/03/16 12:51:55;;;;;;;34.27;16.20;;;13.10;99.90;;;;;;5088366;28;20827;-77
2022/03/16 12:54:23;;;;;;;33.97;14.57;;;13.20;99.90;;;;;;5069807;28;20204;-77